Hickory Valley, Louisiana
Current Conditions -  °F | °C
As of 9:35 AM on Saturday 22 Nov 2014 (Local Time) from KRSN Reporting Station
Scattered Clouds Scattered Clouds  
Wind Chill: 16°   Ceiling: Unl
Heat Index: 16°   Visibility: 10mi
Dew Point: 11°   Wind: 7mph
Humidity: 74%   Direction: 150°SSE
Pressure: 30.22"   Gusts: NA
Location:  32.0547°N, 92.4144°W
Report Text: KRSN 221535Z AUTO 15006KT 10SM SCT120 16/11 A3022 RMK AO2 LTG DSNT W T01610114
Loading
Personal Weather Stations






























Interactive Weather Map New forecast layout! Learn more

10-Day Weather Forecast

Advertisements
Track Severe Weather on mobile